sensor_id;sensor_type;location;lat;lon;timestamp;temperature;humidity
26270;DHT22;15937;50.612;6.656;2023-04-05T00:03:26;1.50;99.90
26270;DHT22;15937;50.612;6.656;2023-04-05T00:07:29;1.30;99.90
26270;DHT22;15937;50.612;6.656;2023-04-05T00:11:34;1.00;99.90
26270;DHT22;15937;50.612;6.656;2023-04-05T00:15:36;1.10;99.90
26270;DHT22;15937;50.612;6.656;2023-04-05T00:19:38;1.10;99.90
26270;DHT22;15937;50.612;6.656;2023-04-05T00:23:40;0.90;99.90
26270;DHT22;15937;50.612;6.656;2023-04-05T00:27:43;1.00;99.90
26270;DHT22;15937;50.612;6.656;2023-04-05T00:31:45;1.20;99.90
26270;DHT22;15937;50.612;6.656;2023-04-05T00:35:46;1.00;99.90
26270;DHT22;15937;50.612;6.656;2023-04-05T00:39:48;0.90;99.90
26270;DHT22;15937;50.612;6.656;2023-04-05T00:43:50;1.10;99.90
26270;DHT22;15937;50.612;6.656;2023-04-05T00:47:52;0.70;99.90
26270;DHT22;15937;50.612;6.656;2023-04-05T00:51:55;0.80;99.90
26270;DHT22;15937;50.612;6.656;2023-04-05T00:55:57;1.00;99.90
26270;DHT22;15937;50.612;6.656;2023-04-05T01:00:00;0.70;99.90
26270;DHT22;15937;50.612;6.656;2023-04-05T01:04:08;0.80;99.90
26270;DHT22;15937;50.612;6.656;2023-04-05T01:08:17;0.80;99.90
26270;DHT22;15937;50.612;6.656;2023-04-05T01:12:22;0.70;99.90
26270;DHT22;15937;50.612;6.656;2023-04-05T01:16:26;0.80;99.90
26270;DHT22;15937;50.612;6.656;2023-04-05T01:20:32;0.60;99.90
26270;DHT22;15937;50.612;6.656;2023-04-05T01:24:40;0.70;99.90
26270;DHT22;15937;50.612;6.656;2023-04-05T01:34:07;1.00;99.90
26270;DHT22;15937;50.612;6.656;2023-04-05T01:37:54;0.90;99.90
26270;DHT22;15937;50.612;6.656;2023-04-05T01:42:01;1.00;99.90
26270;DHT22;15937;50.612;6.656;2023-04-05T01:46:03;1.00;99.90
26270;DHT22;15937;50.612;6.656;2023-04-05T01:50:05;1.00;99.90
26270;DHT22;15937;50.612;6.656;2023-04-05T01:54:10;0.90;99.90
26270;DHT22;15937;50.612;6.656;2023-04-05T01:58:12;1.00;99.90
26270;DHT22;15937;50.612;6.656;2023-04-05T02:02:14;1.00;99.90
26270;DHT22;15937;50.612;6.656;2023-04-05T02:06:16;0.90;99.90
26270;DHT22;15937;50.612;6.656;2023-04-05T02:10:18;0.90;99.90
26270;DHT22;15937;50.612;6.656;2023-04-05T02:14:20;1.10;99.90
26270;DHT22;15937;50.612;6.656;2023-04-05T02:18:22;1.10;99.90
26270;DHT22;15937;50.612;6.656;2023-04-05T02:22:30;1.10;99.90
26270;DHT22;15937;50.612;6.656;2023-04-05T02:26:32;1.00;99.90
26270;DHT22;15937;50.612;6.656;2023-04-05T02:30:34;1.00;99.90
26270;DHT22;15937;50.612;6.656;2023-04-05T02:34:36;0.90;99.90
26270;DHT22;15937;50.612;6.656;2023-04-05T02:38:39;0.60;99.90
26270;DHT22;15937;50.612;6.656;2023-04-05T02:42:41;0.80;99.90
26270;DHT22;15937;50.612;6.656;2023-04-05T02:46:43;0.90;99.90
26270;DHT22;15937;50.612;6.656;2023-04-05T02:50:49;0.90;99.90
26270;DHT22;15937;50.612;6.656;2023-04-05T02:54:51;1.00;99.90
26270;DHT22;15937;50.612;6.656;2023-04-05T02:58:53;0.70;99.90
26270;DHT22;15937;50.612;6.656;2023-04-05T03:02:54;0.80;99.90
26270;DHT22;15937;50.612;6.656;2023-04-05T03:06:57;0.90;99.90
26270;DHT22;15937;50.612;6.656;2023-04-05T03:10:58;1.00;99.90
26270;DHT22;15937;50.612;6.656;2023-04-05T03:15:00;1.00;99.90
26270;DHT22;15937;50.612;6.656;2023-04-05T03:19:02;1.00;99.90
26270;DHT22;15937;50.612;6.656;2023-04-05T03:23:06;0.80;99.90
26270;DHT22;15937;50.612;6.656;2023-04-05T03:27:09;0.70;99.90
26270;DHT22;15937;50.612;6.656;2023-04-05T03:31:12;0.80;99.90
26270;DHT22;15937;50.612;6.656;2023-04-05T03:35:14;0.80;99.90
26270;DHT22;15937;50.612;6.656;2023-04-05T03:39:17;0.80;99.90
26270;DHT22;15937;50.612;6.656;2023-04-05T03:43:19;0.90;99.90
26270;DHT22;15937;50.612;6.656;2023-04-05T03:47:21;1.00;99.90
26270;DHT22;15937;50.612;6.656;2023-04-05T03:51:23;0.90;99.90
26270;DHT22;15937;50.612;6.656;2023-04-05T03:55:24;0.80;99.90
26270;DHT22;15937;50.612;6.656;2023-04-05T03:59:26;0.80;99.90
26270;DHT22;15937;50.612;6.656;2023-04-05T04:03:28;0.70;99.90
26270;DHT22;15937;50.612;6.656;2023-04-05T04:07:31;0.70;99.90
26270;DHT22;15937;50.612;6.656;2023-04-05T04:11:33;0.60;99.90
26270;DHT22;15937;50.612;6.656;2023-04-05T04:15:35;0.60;99.90
26270;DHT22;15937;50.612;6.656;2023-04-05T04:19:36;0.50;99.90
26270;DHT22;15937;50.612;6.656;2023-04-05T04:23:38;0.50;99.90
26270;DHT22;15937;50.612;6.656;2023-04-05T04:27:41;0.40;99.90
26270;DHT22;15937;50.612;6.656;2023-04-05T04:31:43;0.30;99.90
26270;DHT22;15937;50.612;6.656;2023-04-05T04:35:50;0.30;99.90
26270;DHT22;15937;50.612;6.656;2023-04-05T04:39:55;0.30;99.90
26270;DHT22;15937;50.612;6.656;2023-04-05T04:43:57;0.50;99.90
26270;DHT22;15937;50.612;6.656;2023-04-05T04:48:03;0.50;99.90
26270;DHT22;15937;50.612;6.656;2023-04-05T04:52:05;0.50;99.90
26270;DHT22;15937;50.612;6.656;2023-04-05T04:56:08;0.50;99.90
26270;DHT22;15937;50.612;6.656;2023-04-05T05:00:10;0.40;99.90
26270;DHT22;15937;50.612;6.656;2023-04-05T05:04:16;0.40;99.90
26270;DHT22;15937;50.612;6.656;2023-04-05T05:08:18;0.30;99.90
26270;DHT22;15937;50.612;6.656;2023-04-05T05:12:22;0.20;99.90
26270;DHT22;15937;50.612;6.656;2023-04-05T05:16:24;0.10;99.90
26270;DHT22;15937;50.612;6.656;2023-04-05T05:24:45;-0.10;99.90
26270;DHT22;15937;50.612;6.656;2023-04-05T05:28:47;0.10;99.90
26270;DHT22;15937;50.612;6.656;2023-04-05T05:32:50;0.40;99.90
26270;DHT22;15937;50.612;6.656;2023-04-05T05:36:56;0.50;99.90
26270;DHT22;15937;50.612;6.656;2023-04-05T05:40:58;0.60;99.90
26270;DHT22;15937;50.612;6.656;2023-04-05T05:45:04;0.70;99.90
26270;DHT22;15937;50.612;6.656;2023-04-05T05:49:06;0.60;99.90
26270;DHT22;15937;50.612;6.656;2023-04-05T05:53:08;0.60;99.90
26270;DHT22;15937;50.612;6.656;2023-04-05T05:57:10;0.70;99.90
26270;DHT22;15937;50.612;6.656;2023-04-05T06:01:11;0.70;99.90
26270;DHT22;15937;50.612;6.656;2023-04-05T06:05:13;1.00;99.90
26270;DHT22;15937;50.612;6.656;2023-04-05T06:09:15;1.30;99.90
26270;DHT22;15937;50.612;6.656;2023-04-05T06:13:17;1.40;99.90
26270;DHT22;15937;50.612;6.656;2023-04-05T06:17:19;1.60;99.90
26270;DHT22;15937;50.612;6.656;2023-04-05T06:21:21;1.60;99.90
26270;DHT22;15937;50.612;6.656;2023-04-05T06:25:23;1.80;99.90
26270;DHT22;15937;50.612;6.656;2023-04-05T06:29:25;2.00;99.90
26270;DHT22;15937;50.612;6.656;2023-04-05T06:33:28;2.20;99.90
26270;DHT22;15937;50.612;6.656;2023-04-05T06:37:29;2.40;99.90
26270;DHT22;15937;50.612;6.656;2023-04-05T06:41:31;2.60;99.90
26270;DHT22;15937;50.612;6.656;2023-04-05T06:45:33;2.60;99.90
26270;DHT22;15937;50.612;6.656;2023-04-05T06:49:35;2.60;99.90
26270;DHT22;15937;50.612;6.656;2023-04-05T06:53:37;3.10;99.90
26270;DHT22;15937;50.612;6.656;2023-04-05T06:57:39;3.30;99.90
26270;DHT22;15937;50.612;6.656;2023-04-05T07:01:41;3.60;99.90
26270;DHT22;15937;50.612;6.656;2023-04-05T07:05:54;3.90;99.90
26270;DHT22;15937;50.612;6.656;2023-04-05T07:09:57;4.00;99.90
26270;DHT22;15937;50.612;6.656;2023-04-05T07:13:59;4.10;99.90
26270;DHT22;15937;50.612;6.656;2023-04-05T07:18:02;4.20;99.90
26270;DHT22;15937;50.612;6.656;2023-04-05T07:22:03;4.40;98.90
26270;DHT22;15937;50.612;6.656;2023-04-05T07:26:05;4.40;98.90
26270;DHT22;15937;50.612;6.656;2023-04-05T07:30:08;4.70;99.20
26270;DHT22;15937;50.612;6.656;2023-04-05T07:34:12;4.90;99.90
26270;DHT22;15937;50.612;6.656;2023-04-05T07:38:13;5.00;99.90
26270;DHT22;15937;50.612;6.656;2023-04-05T07:42:15;5.10;99.90
26270;DHT22;15937;50.612;6.656;2023-04-05T07:46:18;5.40;99.90
26270;DHT22;15937;50.612;6.656;2023-04-05T07:50:20;5.50;98.90
26270;DHT22;15937;50.612;6.656;2023-04-05T07:54:22;5.40;98.40
26270;DHT22;15937;50.612;6.656;2023-04-05T07:58:24;5.70;97.40
26270;DHT22;15937;50.612;6.656;2023-04-05T08:02:26;5.60;96.80
26270;DHT22;15937;50.612;6.656;2023-04-05T08:06:28;5.40;97.40
26270;DHT22;15937;50.612;6.656;2023-04-05T08:10:30;5.40;97.00
26270;DHT22;15937;50.612;6.656;2023-04-05T08:14:32;5.30;96.20
26270;DHT22;15937;50.612;6.656;2023-04-05T08:18:34;5.70;96.70
26270;DHT22;15937;50.612;6.656;2023-04-05T08:22:36;6.00;97.20
26270;DHT22;15937;50.612;6.656;2023-04-05T08:26:37;6.20;95.60
26270;DHT22;15937;50.612;6.656;2023-04-05T08:30:40;6.20;94.50
26270;DHT22;15937;50.612;6.656;2023-04-05T08:34:43;6.60;94.30
26270;DHT22;15937;50.612;6.656;2023-04-05T08:38:44;6.40;92.70
26270;DHT22;15937;50.612;6.656;2023-04-05T08:42:54;6.50;94.10
26270;DHT22;15937;50.612;6.656;2023-04-05T08:46:58;6.80;95.30
26270;DHT22;15937;50.612;6.656;2023-04-05T08:51:01;6.50;93.80
26270;DHT22;15937;50.612;6.656;2023-04-05T08:55:04;6.70;94.60
26270;DHT22;15937;50.612;6.656;2023-04-05T08:59:09;6.60;94.50
26270;DHT22;15937;50.612;6.656;2023-04-05T09:03:18;6.60;94.40
26270;DHT22;15937;50.612;6.656;2023-04-05T09:07:22;6.80;94.40
26270;DHT22;15937;50.612;6.656;2023-04-05T09:11:25;6.60;93.90
26270;DHT22;15937;50.612;6.656;2023-04-05T09:15:30;6.80;94.10
26270;DHT22;15937;50.612;6.656;2023-04-05T09:19:32;7.10;94.40
26270;DHT22;15937;50.612;6.656;2023-04-05T09:23:34;7.00;92.90
26270;DHT22;15937;50.612;6.656;2023-04-05T09:27:55;7.20;92.90
26270;DHT22;15937;50.612;6.656;2023-04-05T09:31:57;7.30;92.60
26270;DHT22;15937;50.612;6.656;2023-04-05T09:36:01;7.20;91.60
26270;DHT22;15937;50.612;6.656;2023-04-05T09:40:03;7.70;91.80
26270;DHT22;15937;50.612;6.656;2023-04-05T09:44:05;7.50;91.60
26270;DHT22;15937;50.612;6.656;2023-04-05T09:48:08;7.30;91.60
26270;DHT22;15937;50.612;6.656;2023-04-05T09:52:22;7.60;91.40
26270;DHT22;15937;50.612;6.656;2023-04-05T09:56:25;8.10;91.70
26270;DHT22;15937;50.612;6.656;2023-04-05T10:00:28;8.10;90.90
26270;DHT22;15937;50.612;6.656;2023-04-05T10:04:40;7.90;90.80
26270;DHT22;15937;50.612;6.656;2023-04-05T10:08:42;8.20;91.10
26270;DHT22;15937;50.612;6.656;2023-04-05T10:12:45;7.80;90.10
26270;DHT22;15937;50.612;6.656;2023-04-05T10:21:22;7.70;88.90
26270;DHT22;15937;50.612;6.656;2023-04-05T10:29:49;7.90;85.20
26270;DHT22;15937;50.612;6.656;2023-04-05T10:34:05;8.10;84.20
26270;DHT22;15937;50.612;6.656;2023-04-05T10:38:27;8.50;85.90
26270;DHT22;15937;50.612;6.656;2023-04-05T10:42:40;8.30;85.40
26270;DHT22;15937;50.612;6.656;2023-04-05T10:46:45;8.70;85.20
26270;DHT22;15937;50.612;6.656;2023-04-05T10:50:47;9.10;83.60
26270;DHT22;15937;50.612;6.656;2023-04-05T10:54:51;8.40;81.40
26270;DHT22;15937;50.612;6.656;2023-04-05T10:58:54;8.80;83.00
26270;DHT22;15937;50.612;6.656;2023-04-05T11:02:57;9.00;82.70
26270;DHT22;15937;50.612;6.656;2023-04-05T11:07:17;9.10;82.60
26270;DHT22;15937;50.612;6.656;2023-04-05T11:11:21;8.80;80.70
26270;DHT22;15937;50.612;6.656;2023-04-05T11:19:47;8.70;80.50
26270;DHT22;15937;50.612;6.656;2023-04-05T11:28:38;9.20;78.20
26270;DHT22;15937;50.612;6.656;2023-04-05T11:32:43;9.30;79.20
26270;DHT22;15937;50.612;6.656;2023-04-05T11:36:47;9.20;80.20
26270;DHT22;15937;50.612;6.656;2023-04-05T11:40:49;9.90;79.30
26270;DHT22;15937;50.612;6.656;2023-04-05T11:44:52;9.10;78.10
26270;DHT22;15937;50.612;6.656;2023-04-05T11:48:56;9.80;78.20
26270;DHT22;15937;50.612;6.656;2023-04-05T11:53:17;9.90;76.30
26270;DHT22;15937;50.612;6.656;2023-04-05T11:57:23;9.30;76.90
26270;DHT22;15937;50.612;6.656;2023-04-05T12:01:25;9.60;79.10
26270;DHT22;15937;50.612;6.656;2023-04-05T12:14:00;9.80;76.80
26270;DHT22;15937;50.612;6.656;2023-04-05T12:18:02;10.00;76.80
26270;DHT22;15937;50.612;6.656;2023-04-05T12:22:04;10.10;77.10
26270;DHT22;15937;50.612;6.656;2023-04-05T12:26:07;10.40;77.40
26270;DHT22;15937;50.612;6.656;2023-04-05T12:30:20;10.00;76.60
26270;DHT22;15937;50.612;6.656;2023-04-05T12:34:25;9.90;77.30
26270;DHT22;15937;50.612;6.656;2023-04-05T12:38:28;10.10;78.60
26270;DHT22;15937;50.612;6.656;2023-04-05T12:42:35;10.00;77.60
26270;DHT22;15937;50.612;6.656;2023-04-05T12:46:40;10.30;77.80
26270;DHT22;15937;50.612;6.656;2023-04-05T12:50:44;9.90;76.70
26270;DHT22;15937;50.612;6.656;2023-04-05T12:54:53;10.10;76.40
26270;DHT22;15937;50.612;6.656;2023-04-05T12:58:55;10.10;76.80
26270;DHT22;15937;50.612;6.656;2023-04-05T13:02:58;10.40;78.40
26270;DHT22;15937;50.612;6.656;2023-04-05T13:07:00;10.60;78.50
26270;DHT22;15937;50.612;6.656;2023-04-05T13:11:02;10.70;76.90
26270;DHT22;15937;50.612;6.656;2023-04-05T13:15:04;10.50;77.00
26270;DHT22;15937;50.612;6.656;2023-04-05T13:19:06;10.40;75.70
26270;DHT22;15937;50.612;6.656;2023-04-05T13:23:08;10.60;76.10
26270;DHT22;15937;50.612;6.656;2023-04-05T13:27:14;10.60;74.80
26270;DHT22;15937;50.612;6.656;2023-04-05T13:31:16;10.60;74.70
26270;DHT22;15937;50.612;6.656;2023-04-05T13:35:18;10.50;75.10
26270;DHT22;15937;50.612;6.656;2023-04-05T13:39:20;10.80;73.80
26270;DHT22;15937;50.612;6.656;2023-04-05T13:43:22;10.80;73.70
26270;DHT22;15937;50.612;6.656;2023-04-05T13:47:24;10.90;75.00
26270;DHT22;15937;50.612;6.656;2023-04-05T13:51:26;11.20;74.70
26270;DHT22;15937;50.612;6.656;2023-04-05T13:55:31;11.20;73.90
26270;DHT22;15937;50.612;6.656;2023-04-05T13:59:33;11.10;74.80
26270;DHT22;15937;50.612;6.656;2023-04-05T14:03:37;10.60;73.30
26270;DHT22;15937;50.612;6.656;2023-04-05T14:07:39;10.60;72.20
26270;DHT22;15937;50.612;6.656;2023-04-05T14:11:42;10.50;72.70
26270;DHT22;15937;50.612;6.656;2023-04-05T14:15:44;10.30;72.70
26270;DHT22;15937;50.612;6.656;2023-04-05T14:19:46;10.80;71.20
26270;DHT22;15937;50.612;6.656;2023-04-05T14:23:48;11.50;70.00
26270;DHT22;15937;50.612;6.656;2023-04-05T14:27:53;11.70;71.70
26270;DHT22;15937;50.612;6.656;2023-04-05T14:31:55;11.70;68.90
26270;DHT22;15937;50.612;6.656;2023-04-05T14:35:57;11.20;70.00
26270;DHT22;15937;50.612;6.656;2023-04-05T14:39:59;11.20;70.80
26270;DHT22;15937;50.612;6.656;2023-04-05T14:44:01;10.60;69.00
26270;DHT22;15937;50.612;6.656;2023-04-05T14:48:03;11.40;69.80
26270;DHT22;15937;50.612;6.656;2023-04-05T14:52:05;11.30;69.50
26270;DHT22;15937;50.612;6.656;2023-04-05T14:56:07;11.30;70.20
26270;DHT22;15937;50.612;6.656;2023-04-05T15:00:11;10.90;69.20
26270;DHT22;15937;50.612;6.656;2023-04-05T15:04:19;11.30;69.20
26270;DHT22;15937;50.612;6.656;2023-04-05T15:08:23;11.20;68.40
26270;DHT22;15937;50.612;6.656;2023-04-05T15:12:25;11.40;68.20
26270;DHT22;15937;50.612;6.656;2023-04-05T15:16:27;11.50;67.80
26270;DHT22;15937;50.612;6.656;2023-04-05T15:20:38;10.60;67.90
26270;DHT22;15937;50.612;6.656;2023-04-05T15:24:40;10.90;68.70
26270;DHT22;15937;50.612;6.656;2023-04-05T15:28:44;11.20;68.30
26270;DHT22;15937;50.612;6.656;2023-04-05T15:32:46;11.10;67.60
26270;DHT22;15937;50.612;6.656;2023-04-05T15:36:48;11.10;66.50
26270;DHT22;15937;50.612;6.656;2023-04-05T15:40:50;11.50;68.20
26270;DHT22;15937;50.612;6.656;2023-04-05T15:44:53;11.50;65.30
26270;DHT22;15937;50.612;6.656;2023-04-05T15:48:54;11.20;64.70
26270;DHT22;15937;50.612;6.656;2023-04-05T15:52:56;11.30;63.60
26270;DHT22;15937;50.612;6.656;2023-04-05T15:56:58;11.10;65.40
26270;DHT22;15937;50.612;6.656;2023-04-05T16:01:00;11.20;64.90
26270;DHT22;15937;50.612;6.656;2023-04-05T16:05:02;10.70;64.00
26270;DHT22;15937;50.612;6.656;2023-04-05T16:09:03;11.20;62.60
26270;DHT22;15937;50.612;6.656;2023-04-05T16:13:05;11.00;62.50
26270;DHT22;15937;50.612;6.656;2023-04-05T16:17:07;10.80;63.20
26270;DHT22;15937;50.612;6.656;2023-04-05T16:21:09;11.20;63.00
26270;DHT22;15937;50.612;6.656;2023-04-05T16:25:11;11.20;61.10
26270;DHT22;15937;50.612;6.656;2023-04-05T16:29:13;11.90;60.70
26270;DHT22;15937;50.612;6.656;2023-04-05T16:33:15;11.30;59.20
26270;DHT22;15937;50.612;6.656;2023-04-05T16:37:16;11.30;59.90
26270;DHT22;15937;50.612;6.656;2023-04-05T16:41:18;11.20;59.50
26270;DHT22;15937;50.612;6.656;2023-04-05T16:45:20;10.90;60.20
26270;DHT22;15937;50.612;6.656;2023-04-05T16:49:22;10.80;59.80
26270;DHT22;15937;50.612;6.656;2023-04-05T16:53:24;10.70;59.20
26270;DHT22;15937;50.612;6.656;2023-04-05T16:57:26;10.40;58.80
26270;DHT22;15937;50.612;6.656;2023-04-05T17:01:28;10.40;58.00
26270;DHT22;15937;50.612;6.656;2023-04-05T17:05:31;10.30;57.60
26270;DHT22;15937;50.612;6.656;2023-04-05T17:09:32;10.50;57.50
26270;DHT22;15937;50.612;6.656;2023-04-05T17:13:34;10.40;57.50
26270;DHT22;15937;50.612;6.656;2023-04-05T17:17:36;9.70;58.30
26270;DHT22;15937;50.612;6.656;2023-04-05T17:21:38;9.70;57.80
26270;DHT22;15937;50.612;6.656;2023-04-05T17:25:43;9.70;59.00
26270;DHT22;15937;50.612;6.656;2023-04-05T17:29:44;9.60;59.50
26270;DHT22;15937;50.612;6.656;2023-04-05T17:33:46;9.50;60.70
26270;DHT22;15937;50.612;6.656;2023-04-05T17:37:50;9.50;62.00
26270;DHT22;15937;50.612;6.656;2023-04-05T17:41:54;9.30;62.20
26270;DHT22;15937;50.612;6.656;2023-04-05T17:45:57;9.50;64.10
26270;DHT22;15937;50.612;6.656;2023-04-05T17:49:58;9.20;65.80
26270;DHT22;15937;50.612;6.656;2023-04-05T17:54:00;9.30;66.00
26270;DHT22;15937;50.612;6.656;2023-04-05T17:58:02;9.30;66.70
26270;DHT22;15937;50.612;6.656;2023-04-05T18:02:03;9.10;67.10
26270;DHT22;15937;50.612;6.656;2023-04-05T18:06:06;9.20;69.10
26270;DHT22;15937;50.612;6.656;2023-04-05T18:10:08;9.10;71.30
26270;DHT22;15937;50.612;6.656;2023-04-05T18:14:10;8.80;72.40
26270;DHT22;15937;50.612;6.656;2023-04-05T18:18:12;8.90;73.70
26270;DHT22;15937;50.612;6.656;2023-04-05T18:22:14;8.80;73.40
26270;DHT22;15937;50.612;6.656;2023-04-05T18:26:17;8.70;73.70
26270;DHT22;15937;50.612;6.656;2023-04-05T18:30:19;8.60;74.10
26270;DHT22;15937;50.612;6.656;2023-04-05T18:34:23;8.40;75.30
26270;DHT22;15937;50.612;6.656;2023-04-05T18:38:25;8.40;77.00
26270;DHT22;15937;50.612;6.656;2023-04-05T18:42:27;8.40;76.30
26270;DHT22;15937;50.612;6.656;2023-04-05T18:46:28;8.20;76.70
26270;DHT22;15937;50.612;6.656;2023-04-05T18:50:30;8.20;77.80
26270;DHT22;15937;50.612;6.656;2023-04-05T18:54:32;7.90;80.40
26270;DHT22;15937;50.612;6.656;2023-04-05T18:58:34;7.60;82.70
26270;DHT22;15937;50.612;6.656;2023-04-05T19:02:36;7.40;83.40
26270;DHT22;15937;50.612;6.656;2023-04-05T19:06:38;7.30;82.90
26270;DHT22;15937;50.612;6.656;2023-04-05T19:10:40;7.20;85.40
26270;DHT22;15937;50.612;6.656;2023-04-05T19:14:42;7.10;87.00
26270;DHT22;15937;50.612;6.656;2023-04-05T19:18:44;7.00;87.40
26270;DHT22;15937;50.612;6.656;2023-04-05T19:22:46;6.90;87.80
26270;DHT22;15937;50.612;6.656;2023-04-05T19:26:48;6.40;89.40
26270;DHT22;15937;50.612;6.656;2023-04-05T19:30:50;5.30;90.00
26270;DHT22;15937;50.612;6.656;2023-04-05T19:34:52;5.80;90.10
26270;DHT22;15937;50.612;6.656;2023-04-05T19:38:53;6.10;88.00
26270;DHT22;15937;50.612;6.656;2023-04-05T19:42:57;5.30;88.20
26270;DHT22;15937;50.612;6.656;2023-04-05T19:47:00;5.50;90.10
26270;DHT22;15937;50.612;6.656;2023-04-05T19:51:06;5.70;90.30
26270;DHT22;15937;50.612;6.656;2023-04-05T19:55:29;5.70;90.60
26270;DHT22;15937;50.612;6.656;2023-04-05T19:59:33;5.50;90.40
26270;DHT22;15937;50.612;6.656;2023-04-05T20:03:37;5.30;91.40
26270;DHT22;15937;50.612;6.656;2023-04-05T20:07:41;4.70;93.70
26270;DHT22;15937;50.612;6.656;2023-04-05T20:11:56;4.50;95.80
26270;DHT22;15937;50.612;6.656;2023-04-05T20:15:58;4.80;95.80
26270;DHT22;15937;50.612;6.656;2023-04-05T20:20:00;4.90;94.10
26270;DHT22;15937;50.612;6.656;2023-04-05T20:24:06;5.10;93.20
26270;DHT22;15937;50.612;6.656;2023-04-05T20:32:25;5.20;92.00
26270;DHT22;15937;50.612;6.656;2023-04-05T20:36:33;5.20;91.80
26270;DHT22;15937;50.612;6.656;2023-04-05T20:40:35;5.10;91.80
26270;DHT22;15937;50.612;6.656;2023-04-05T20:44:37;5.10;91.90
26270;DHT22;15937;50.612;6.656;2023-04-05T20:48:39;5.00;92.10
26270;DHT22;15937;50.612;6.656;2023-04-05T20:52:40;4.70;92.60
26270;DHT22;15937;50.612;6.656;2023-04-05T20:56:42;4.70;93.70
26270;DHT22;15937;50.612;6.656;2023-04-05T21:00:44;4.70;94.40
26270;DHT22;15937;50.612;6.656;2023-04-05T21:04:46;4.60;94.90
26270;DHT22;15937;50.612;6.656;2023-04-05T21:08:49;4.40;95.50
26270;DHT22;15937;50.612;6.656;2023-04-05T21:12:51;4.10;96.30
26270;DHT22;15937;50.612;6.656;2023-04-05T21:16:55;3.70;99.10
26270;DHT22;15937;50.612;6.656;2023-04-05T21:20:56;3.90;99.90
26270;DHT22;15937;50.612;6.656;2023-04-05T21:24:58;3.80;99.90
26270;DHT22;15937;50.612;6.656;2023-04-05T21:29:00;3.20;99.90
26270;DHT22;15937;50.612;6.656;2023-04-05T21:33:02;2.90;99.90
26270;DHT22;15937;50.612;6.656;2023-04-05T21:37:03;2.90;99.90
26270;DHT22;15937;50.612;6.656;2023-04-05T21:41:05;2.90;99.90
26270;DHT22;15937;50.612;6.656;2023-04-05T21:45:08;3.30;99.90
26270;DHT22;15937;50.612;6.656;2023-04-05T21:49:12;3.30;99.90
26270;DHT22;15937;50.612;6.656;2023-04-05T21:53:14;3.30;99.90
26270;DHT22;15937;50.612;6.656;2023-04-05T21:57:16;3.30;99.90
26270;DHT22;15937;50.612;6.656;2023-04-05T22:01:18;3.40;99.90
26270;DHT22;15937;50.612;6.656;2023-04-05T22:05:20;3.30;99.90
26270;DHT22;15937;50.612;6.656;2023-04-05T22:09:37;3.30;99.90
26270;DHT22;15937;50.612;6.656;2023-04-05T22:13:39;3.20;99.90
26270;DHT22;15937;50.612;6.656;2023-04-05T22:17:40;3.10;99.90
26270;DHT22;15937;50.612;6.656;2023-04-05T22:21:42;3.10;99.90
26270;DHT22;15937;50.612;6.656;2023-04-05T22:25:44;3.00;99.90
26270;DHT22;15937;50.612;6.656;2023-04-05T22:29:47;2.90;99.90
26270;DHT22;15937;50.612;6.656;2023-04-05T22:33:52;2.90;99.90
26270;DHT22;15937;50.612;6.656;2023-04-05T22:37:57;3.00;99.90
26270;DHT22;15937;50.612;6.656;2023-04-05T22:42:00;3.00;99.90
26270;DHT22;15937;50.612;6.656;2023-04-05T22:46:05;3.00;99.90
26270;DHT22;15937;50.612;6.656;2023-04-05T22:50:11;3.00;99.90
26270;DHT22;15937;50.612;6.656;2023-04-05T22:54:24;2.80;99.90
26270;DHT22;15937;50.612;6.656;2023-04-05T22:58:35;2.80;99.90
26270;DHT22;15937;50.612;6.656;2023-04-05T23:02:37;2.50;99.90
26270;DHT22;15937;50.612;6.656;2023-04-05T23:06:50;2.50;99.90
26270;DHT22;15937;50.612;6.656;2023-04-05T23:10:55;2.20;99.90
26270;DHT22;15937;50.612;6.656;2023-04-05T23:15:06;2.40;99.90
26270;DHT22;15937;50.612;6.656;2023-04-05T23:19:10;2.50;99.90
26270;DHT22;15937;50.612;6.656;2023-04-05T23:23:16;2.50;99.90
26270;DHT22;15937;50.612;6.656;2023-04-05T23:27:21;2.50;99.90
26270;DHT22;15937;50.612;6.656;2023-04-05T23:31:24;2.50;99.90
26270;DHT22;15937;50.612;6.656;2023-04-05T23:35:26;2.60;99.90
26270;DHT22;15937;50.612;6.656;2023-04-05T23:39:30;2.50;99.90
26270;DHT22;15937;50.612;6.656;2023-04-05T23:43:41;2.30;99.90
26270;DHT22;15937;50.612;6.656;2023-04-05T23:47:45;2.30;99.90
26270;DHT22;15937;50.612;6.656;2023-04-05T23:51:47;1.80;99.90
26270;DHT22;15937;50.612;6.656;2023-04-05T23:55:49;1.90;99.90
26270;DHT22;15937;50.612;6.656;2023-04-05T23:59:53;1.80;99.90
